Terminal Aerodrome Forecast
Issued by NWS

Home | Current Version | Previous Version | Text Only | Print | Product List | Glossary Off
Versions: 1 2 3 4 5 6 7 8 9 10 11 12 13

000
FTUS43 KIWX 170500
TAFSBN
TAF
KSBN 170520Z 1706/1806 14013KT P6SM SCT150 BKN250
     FM171500 20013G20KT P6SM FEW060 BKN150
     FM180000 24006KT P6SM OVC100=

USA.gov is the U.S. government's official web portal to all federal, state and local government web resources and services.